sensor_id;sensor_type;location;lat;lon;timestamp;temperature;humidity
15765;DHT22;7983;50.744;7.086;2023-08-21T00:00:57;23.90;99.90
15765;DHT22;7983;50.744;7.086;2023-08-21T00:03:25;23.90;99.90
15765;DHT22;7983;50.744;7.086;2023-08-21T00:05:51;23.80;99.90
15765;DHT22;7983;50.744;7.086;2023-08-21T00:08:16;23.80;99.90
15765;DHT22;7983;50.744;7.086;2023-08-21T00:10:44;23.70;99.90
15765;DHT22;7983;50.744;7.086;2023-08-21T00:13:10;23.70;99.90
15765;DHT22;7983;50.744;7.086;2023-08-21T00:15:38;23.60;99.90
15765;DHT22;7983;50.744;7.086;2023-08-21T00:18:05;23.60;99.90
15765;DHT22;7983;50.744;7.086;2023-08-21T00:20:33;23.60;99.90
15765;DHT22;7983;50.744;7.086;2023-08-21T00:22:58;23.60;99.90
15765;DHT22;7983;50.744;7.086;2023-08-21T00:25:25;23.50;99.90
15765;DHT22;7983;50.744;7.086;2023-08-21T00:27:53;23.50;99.90
15765;DHT22;7983;50.744;7.086;2023-08-21T00:30:18;23.40;99.90
15765;DHT22;7983;50.744;7.086;2023-08-21T00:32:44;23.40;99.90
15765;DHT22;7983;50.744;7.086;2023-08-21T00:35:12;23.40;99.90
15765;DHT22;7983;50.744;7.086;2023-08-21T00:37:37;23.40;99.90
15765;DHT22;7983;50.744;7.086;2023-08-21T00:40:05;23.40;99.90
15765;DHT22;7983;50.744;7.086;2023-08-21T00:42:31;23.30;99.90
15765;DHT22;7983;50.744;7.086;2023-08-21T00:44:57;23.30;99.90
15765;DHT22;7983;50.744;7.086;2023-08-21T00:47:25;23.30;99.90
15765;DHT22;7983;50.744;7.086;2023-08-21T00:49:53;23.20;99.90
15765;DHT22;7983;50.744;7.086;2023-08-21T00:52:21;23.20;99.90
15765;DHT22;7983;50.744;7.086;2023-08-21T00:54:46;23.20;99.90
15765;DHT22;7983;50.744;7.086;2023-08-21T00:57:12;23.20;99.90
15765;DHT22;7983;50.744;7.086;2023-08-21T00:59:41;23.20;99.90
15765;DHT22;7983;50.744;7.086;2023-08-21T01:02:12;23.20;99.90
15765;DHT22;7983;50.744;7.086;2023-08-21T01:04:37;23.10;99.90
15765;DHT22;7983;50.744;7.086;2023-08-21T01:07:03;23.10;99.90
15765;DHT22;7983;50.744;7.086;2023-08-21T01:09:42;23.10;99.90
15765;DHT22;7983;50.744;7.086;2023-08-21T01:12:25;23.10;99.90
15765;DHT22;7983;50.744;7.086;2023-08-21T01:15:00;23.10;99.90
15765;DHT22;7983;50.744;7.086;2023-08-21T01:17:28;23.10;99.90
15765;DHT22;7983;50.744;7.086;2023-08-21T01:19:55;23.00;99.90
15765;DHT22;7983;50.744;7.086;2023-08-21T01:22:27;23.10;99.90
15765;DHT22;7983;50.744;7.086;2023-08-21T01:24:54;23.00;99.90
15765;DHT22;7983;50.744;7.086;2023-08-21T01:27:22;23.00;99.90
15765;DHT22;7983;50.744;7.086;2023-08-21T01:29:52;23.00;99.90
15765;DHT22;7983;50.744;7.086;2023-08-21T01:32:29;23.00;99.90
15765;DHT22;7983;50.744;7.086;2023-08-21T01:35:00;23.00;99.90
15765;DHT22;7983;50.744;7.086;2023-08-21T01:37:30;23.00;99.90
15765;DHT22;7983;50.744;7.086;2023-08-21T01:39:59;22.90;99.90
15765;DHT22;7983;50.744;7.086;2023-08-21T01:42:25;22.90;99.90
15765;DHT22;7983;50.744;7.086;2023-08-21T01:44:52;22.80;99.90
15765;DHT22;7983;50.744;7.086;2023-08-21T01:47:18;22.80;99.90
15765;DHT22;7983;50.744;7.086;2023-08-21T01:49:44;22.80;99.90
15765;DHT22;7983;50.744;7.086;2023-08-21T01:52:12;22.70;99.90
15765;DHT22;7983;50.744;7.086;2023-08-21T01:54:39;22.60;99.90
15765;DHT22;7983;50.744;7.086;2023-08-21T01:57:07;22.60;99.90
15765;DHT22;7983;50.744;7.086;2023-08-21T01:59:35;22.60;99.90
15765;DHT22;7983;50.744;7.086;2023-08-21T02:02:01;22.50;99.90
15765;DHT22;7983;50.744;7.086;2023-08-21T02:04:31;22.50;99.90
15765;DHT22;7983;50.744;7.086;2023-08-21T02:06:56;22.40;99.90
15765;DHT22;7983;50.744;7.086;2023-08-21T02:09:22;22.40;99.90
15765;DHT22;7983;50.744;7.086;2023-08-21T02:11:50;22.40;99.90
15765;DHT22;7983;50.744;7.086;2023-08-21T02:14:15;22.40;99.90
15765;DHT22;7983;50.744;7.086;2023-08-21T02:16:41;22.40;99.90
15765;DHT22;7983;50.744;7.086;2023-08-21T02:19:06;22.40;99.90
15765;DHT22;7983;50.744;7.086;2023-08-21T02:21:34;22.30;99.90
15765;DHT22;7983;50.744;7.086;2023-08-21T02:23:59;22.30;99.90
15765;DHT22;7983;50.744;7.086;2023-08-21T02:26:25;22.30;99.90
15765;DHT22;7983;50.744;7.086;2023-08-21T02:28:53;22.30;99.90
15765;DHT22;7983;50.744;7.086;2023-08-21T02:31:18;22.40;99.90
15765;DHT22;7983;50.744;7.086;2023-08-21T02:33:44;22.40;99.90
15765;DHT22;7983;50.744;7.086;2023-08-21T02:36:10;22.40;99.90
15765;DHT22;7983;50.744;7.086;2023-08-21T02:38:38;22.40;99.90
15765;DHT22;7983;50.744;7.086;2023-08-21T02:41:06;22.40;99.90
15765;DHT22;7983;50.744;7.086;2023-08-21T02:43:34;22.40;99.90
15765;DHT22;7983;50.744;7.086;2023-08-21T02:46:02;22.40;99.90
15765;DHT22;7983;50.744;7.086;2023-08-21T02:48:30;22.40;99.90
15765;DHT22;7983;50.744;7.086;2023-08-21T02:50:58;22.30;99.90
15765;DHT22;7983;50.744;7.086;2023-08-21T02:53:26;22.30;99.90
15765;DHT22;7983;50.744;7.086;2023-08-21T02:55:52;22.30;99.90
15765;DHT22;7983;50.744;7.086;2023-08-21T02:58:17;22.30;99.90
15765;DHT22;7983;50.744;7.086;2023-08-21T03:00:45;22.20;99.90
15765;DHT22;7983;50.744;7.086;2023-08-21T03:03:13;22.20;99.90
15765;DHT22;7983;50.744;7.086;2023-08-21T03:05:39;22.20;99.90
15765;DHT22;7983;50.744;7.086;2023-08-21T03:08:07;22.20;99.90
15765;DHT22;7983;50.744;7.086;2023-08-21T03:10:32;22.20;99.90
15765;DHT22;7983;50.744;7.086;2023-08-21T03:12:59;22.20;99.90
15765;DHT22;7983;50.744;7.086;2023-08-21T03:15:25;22.20;99.90
15765;DHT22;7983;50.744;7.086;2023-08-21T03:17:51;22.20;99.90
15765;DHT22;7983;50.744;7.086;2023-08-21T03:20:19;22.20;99.90
15765;DHT22;7983;50.744;7.086;2023-08-21T03:22:44;22.20;99.90
15765;DHT22;7983;50.744;7.086;2023-08-21T03:25:10;22.20;99.90
15765;DHT22;7983;50.744;7.086;2023-08-21T03:27:38;22.20;99.90
15765;DHT22;7983;50.744;7.086;2023-08-21T03:30:05;22.20;99.90
15765;DHT22;7983;50.744;7.086;2023-08-21T03:32:34;22.20;99.90
15765;DHT22;7983;50.744;7.086;2023-08-21T03:34:59;22.20;99.90
15765;DHT22;7983;50.744;7.086;2023-08-21T03:37:25;22.20;99.90
15765;DHT22;7983;50.744;7.086;2023-08-21T03:39:53;22.20;99.90
15765;DHT22;7983;50.744;7.086;2023-08-21T03:42:18;22.20;99.90
15765;DHT22;7983;50.744;7.086;2023-08-21T03:44:46;22.20;99.90
15765;DHT22;7983;50.744;7.086;2023-08-21T03:47:15;22.20;99.90
15765;DHT22;7983;50.744;7.086;2023-08-21T03:49:41;22.20;99.90
15765;DHT22;7983;50.744;7.086;2023-08-21T03:52:07;22.10;99.90
15765;DHT22;7983;50.744;7.086;2023-08-21T03:54:32;22.20;99.90
15765;DHT22;7983;50.744;7.086;2023-08-21T03:56:58;22.10;99.90
15765;DHT22;7983;50.744;7.086;2023-08-21T03:59:24;22.10;99.90
15765;DHT22;7983;50.744;7.086;2023-08-21T04:01:53;22.10;99.90
15765;DHT22;7983;50.744;7.086;2023-08-21T04:04:18;22.10;99.90
15765;DHT22;7983;50.744;7.086;2023-08-21T04:06:44;22.10;99.90
15765;DHT22;7983;50.744;7.086;2023-08-21T04:09:10;22.10;99.90
15765;DHT22;7983;50.744;7.086;2023-08-21T04:11:36;22.10;99.90
15765;DHT22;7983;50.744;7.086;2023-08-21T04:14:07;22.00;99.90
15765;DHT22;7983;50.744;7.086;2023-08-21T04:16:32;22.00;99.90
15765;DHT22;7983;50.744;7.086;2023-08-21T04:18:58;22.00;99.90
15765;DHT22;7983;50.744;7.086;2023-08-21T04:21:24;22.00;99.90
15765;DHT22;7983;50.744;7.086;2023-08-21T04:23:49;22.00;99.90
15765;DHT22;7983;50.744;7.086;2023-08-21T04:26:15;22.00;99.90
15765;DHT22;7983;50.744;7.086;2023-08-21T04:28:41;22.00;99.90
15765;DHT22;7983;50.744;7.086;2023-08-21T04:31:10;22.00;99.90
15765;DHT22;7983;50.744;7.086;2023-08-21T04:33:35;22.00;99.90
15765;DHT22;7983;50.744;7.086;2023-08-21T04:36:01;22.00;99.90
15765;DHT22;7983;50.744;7.086;2023-08-21T04:38:27;22.00;99.90
15765;DHT22;7983;50.744;7.086;2023-08-21T04:40:52;22.00;99.90
15765;DHT22;7983;50.744;7.086;2023-08-21T04:43:18;22.00;99.90
15765;DHT22;7983;50.744;7.086;2023-08-21T04:45:50;22.00;99.90
15765;DHT22;7983;50.744;7.086;2023-08-21T04:48:16;22.00;99.90
15765;DHT22;7983;50.744;7.086;2023-08-21T04:50:45;21.90;99.90
15765;DHT22;7983;50.744;7.086;2023-08-21T04:53:13;22.00;99.90
15765;DHT22;7983;50.744;7.086;2023-08-21T04:55:42;22.00;99.90
15765;DHT22;7983;50.744;7.086;2023-08-21T04:58:10;22.00;99.90
15765;DHT22;7983;50.744;7.086;2023-08-21T05:00:36;22.00;99.90
15765;DHT22;7983;50.744;7.086;2023-08-21T05:03:02;22.00;99.90
15765;DHT22;7983;50.744;7.086;2023-08-21T05:05:28;22.00;99.90
15765;DHT22;7983;50.744;7.086;2023-08-21T05:07:53;22.00;99.90
15765;DHT22;7983;50.744;7.086;2023-08-21T05:10:19;22.00;99.90
15765;DHT22;7983;50.744;7.086;2023-08-21T05:12:46;22.00;99.90
15765;DHT22;7983;50.744;7.086;2023-08-21T05:15:12;22.10;99.90
15765;DHT22;7983;50.744;7.086;2023-08-21T05:17:37;22.10;99.90
15765;DHT22;7983;50.744;7.086;2023-08-21T05:20:06;22.10;99.90
15765;DHT22;7983;50.744;7.086;2023-08-21T05:22:32;22.10;99.90
15765;DHT22;7983;50.744;7.086;2023-08-21T05:24:57;22.20;99.90
15765;DHT22;7983;50.744;7.086;2023-08-21T05:27:25;22.20;99.90
15765;DHT22;7983;50.744;7.086;2023-08-21T05:29:51;22.30;99.90
15765;DHT22;7983;50.744;7.086;2023-08-21T05:32:16;22.30;99.90
15765;DHT22;7983;50.744;7.086;2023-08-21T05:34:44;22.30;99.90
15765;DHT22;7983;50.744;7.086;2023-08-21T05:37:10;22.40;99.90
15765;DHT22;7983;50.744;7.086;2023-08-21T05:39:38;22.40;99.90
15765;DHT22;7983;50.744;7.086;2023-08-21T05:42:04;22.50;99.90
15765;DHT22;7983;50.744;7.086;2023-08-21T05:44:29;22.50;99.90
15765;DHT22;7983;50.744;7.086;2023-08-21T05:46:57;22.50;99.90
15765;DHT22;7983;50.744;7.086;2023-08-21T05:49:23;22.60;99.90
15765;DHT22;7983;50.744;7.086;2023-08-21T05:51:48;22.60;99.90
15765;DHT22;7983;50.744;7.086;2023-08-21T05:54:14;22.60;99.90
15765;DHT22;7983;50.744;7.086;2023-08-21T05:56:40;22.70;99.90
15765;DHT22;7983;50.744;7.086;2023-08-21T05:59:10;22.70;99.90
15765;DHT22;7983;50.744;7.086;2023-08-21T06:01:36;22.80;99.90
15765;DHT22;7983;50.744;7.086;2023-08-21T06:04:04;22.90;99.90
15765;DHT22;7983;50.744;7.086;2023-08-21T06:06:29;23.00;99.90
15765;DHT22;7983;50.744;7.086;2023-08-21T06:08:55;23.00;99.90
15765;DHT22;7983;50.744;7.086;2023-08-21T06:11:20;23.10;99.90
15765;DHT22;7983;50.744;7.086;2023-08-21T06:13:47;23.10;99.90
15765;DHT22;7983;50.744;7.086;2023-08-21T06:16:13;23.20;99.90
15765;DHT22;7983;50.744;7.086;2023-08-21T06:18:38;23.20;99.90
15765;DHT22;7983;50.744;7.086;2023-08-21T06:21:06;23.30;99.90
15765;DHT22;7983;50.744;7.086;2023-08-21T06:23:32;23.30;99.90
15765;DHT22;7983;50.744;7.086;2023-08-21T06:25:57;23.30;99.90
15765;DHT22;7983;50.744;7.086;2023-08-21T06:28:25;23.40;99.90
15765;DHT22;7983;50.744;7.086;2023-08-21T06:30:58;23.40;99.90
15765;DHT22;7983;50.744;7.086;2023-08-21T06:33:24;23.40;99.90
15765;DHT22;7983;50.744;7.086;2023-08-21T06:35:56;23.40;99.90
15765;DHT22;7983;50.744;7.086;2023-08-21T06:38:24;23.50;99.90
15765;DHT22;7983;50.744;7.086;2023-08-21T06:40:54;23.50;99.90
15765;DHT22;7983;50.744;7.086;2023-08-21T06:43:20;23.50;99.90
15765;DHT22;7983;50.744;7.086;2023-08-21T06:45:47;23.50;99.90
15765;DHT22;7983;50.744;7.086;2023-08-21T06:48:13;23.50;99.90
15765;DHT22;7983;50.744;7.086;2023-08-21T06:50:39;23.50;99.90
15765;DHT22;7983;50.744;7.086;2023-08-21T06:53:06;23.50;99.90
15765;DHT22;7983;50.744;7.086;2023-08-21T06:55:32;23.50;99.90
15765;DHT22;7983;50.744;7.086;2023-08-21T06:57:58;23.50;99.90
15765;DHT22;7983;50.744;7.086;2023-08-21T07:00:25;23.50;99.90
15765;DHT22;7983;50.744;7.086;2023-08-21T07:02:51;23.50;99.90
15765;DHT22;7983;50.744;7.086;2023-08-21T07:05:17;23.50;99.90
15765;DHT22;7983;50.744;7.086;2023-08-21T07:07:47;23.50;99.90
15765;DHT22;7983;50.744;7.086;2023-08-21T07:10:13;23.50;99.90
15765;DHT22;7983;50.744;7.086;2023-08-21T07:12:38;23.40;99.90
15765;DHT22;7983;50.744;7.086;2023-08-21T07:15:04;23.40;99.90
15765;DHT22;7983;50.744;7.086;2023-08-21T07:17:30;23.50;99.90
15765;DHT22;7983;50.744;7.086;2023-08-21T07:19:56;23.50;99.90
15765;DHT22;7983;50.744;7.086;2023-08-21T07:22:21;23.50;99.90
15765;DHT22;7983;50.744;7.086;2023-08-21T07:24:47;23.50;99.90
15765;DHT22;7983;50.744;7.086;2023-08-21T07:27:13;23.60;99.90
15765;DHT22;7983;50.744;7.086;2023-08-21T07:29:39;23.60;99.90
15765;DHT22;7983;50.744;7.086;2023-08-21T07:32:05;23.60;99.90
15765;DHT22;7983;50.744;7.086;2023-08-21T07:34:30;23.60;99.90
15765;DHT22;7983;50.744;7.086;2023-08-21T07:36:56;23.70;99.90
15765;DHT22;7983;50.744;7.086;2023-08-21T07:39:21;23.70;99.90
15765;DHT22;7983;50.744;7.086;2023-08-21T07:41:47;23.80;99.90
15765;DHT22;7983;50.744;7.086;2023-08-21T07:44:13;23.90;99.90
15765;DHT22;7983;50.744;7.086;2023-08-21T07:46:40;23.90;99.90
15765;DHT22;7983;50.744;7.086;2023-08-21T07:49:10;24.00;99.90
15765;DHT22;7983;50.744;7.086;2023-08-21T07:51:36;24.00;99.90
15765;DHT22;7983;50.744;7.086;2023-08-21T07:54:04;24.10;99.90
15765;DHT22;7983;50.744;7.086;2023-08-21T07:56:30;24.10;99.90
15765;DHT22;7983;50.744;7.086;2023-08-21T07:59:00;24.20;99.90
15765;DHT22;7983;50.744;7.086;2023-08-21T08:01:27;24.30;99.90
15765;DHT22;7983;50.744;7.086;2023-08-21T08:03:52;24.40;99.90
15765;DHT22;7983;50.744;7.086;2023-08-21T08:06:20;24.40;99.90
15765;DHT22;7983;50.744;7.086;2023-08-21T08:08:46;24.50;99.90
15765;DHT22;7983;50.744;7.086;2023-08-21T08:11:12;24.50;99.90
15765;DHT22;7983;50.744;7.086;2023-08-21T08:13:40;24.60;99.90
15765;DHT22;7983;50.744;7.086;2023-08-21T08:16:05;24.70;99.90
15765;DHT22;7983;50.744;7.086;2023-08-21T08:18:33;24.70;99.90
15765;DHT22;7983;50.744;7.086;2023-08-21T08:20:59;24.80;99.90
15765;DHT22;7983;50.744;7.086;2023-08-21T08:23:25;24.80;99.90
15765;DHT22;7983;50.744;7.086;2023-08-21T08:25:50;24.90;99.90
15765;DHT22;7983;50.744;7.086;2023-08-21T08:28:16;24.90;99.90
15765;DHT22;7983;50.744;7.086;2023-08-21T08:30:42;25.00;99.90
15765;DHT22;7983;50.744;7.086;2023-08-21T08:33:07;25.00;99.90
15765;DHT22;7983;50.744;7.086;2023-08-21T08:35:35;25.00;99.90
15765;DHT22;7983;50.744;7.086;2023-08-21T08:38:03;25.10;99.90
15765;DHT22;7983;50.744;7.086;2023-08-21T08:40:30;25.20;99.90
15765;DHT22;7983;50.744;7.086;2023-08-21T08:42:56;25.30;99.90
15765;DHT22;7983;50.744;7.086;2023-08-21T08:45:32;25.30;99.90
15765;DHT22;7983;50.744;7.086;2023-08-21T08:48:04;25.40;99.90
15765;DHT22;7983;50.744;7.086;2023-08-21T08:50:33;25.50;99.90
15765;DHT22;7983;50.744;7.086;2023-08-21T08:53:00;25.50;99.90
15765;DHT22;7983;50.744;7.086;2023-08-21T08:55:26;25.70;99.90
15765;DHT22;7983;50.744;7.086;2023-08-21T08:57:53;25.80;99.90
15765;DHT22;7983;50.744;7.086;2023-08-21T09:00:20;25.80;99.90
15765;DHT22;7983;50.744;7.086;2023-08-21T09:02:50;25.90;99.90
15765;DHT22;7983;50.744;7.086;2023-08-21T09:05:17;26.00;99.90
15765;DHT22;7983;50.744;7.086;2023-08-21T09:07:42;26.10;99.90
15765;DHT22;7983;50.744;7.086;2023-08-21T09:10:15;26.20;99.90
15765;DHT22;7983;50.744;7.086;2023-08-21T09:12:41;26.20;99.90
15765;DHT22;7983;50.744;7.086;2023-08-21T09:15:12;26.30;99.90
15765;DHT22;7983;50.744;7.086;2023-08-21T09:17:40;26.40;99.90
15765;DHT22;7983;50.744;7.086;2023-08-21T09:20:08;26.50;99.90
15765;DHT22;7983;50.744;7.086;2023-08-21T09:22:35;26.60;99.90
15765;DHT22;7983;50.744;7.086;2023-08-21T09:25:09;26.60;99.90
15765;DHT22;7983;50.744;7.086;2023-08-21T09:27:41;26.70;99.90
15765;DHT22;7983;50.744;7.086;2023-08-21T09:30:11;26.80;99.90
15765;DHT22;7983;50.744;7.086;2023-08-21T09:33:00;26.90;99.90
15765;DHT22;7983;50.744;7.086;2023-08-21T09:35:28;27.00;99.90
15765;DHT22;7983;50.744;7.086;2023-08-21T09:37:57;27.00;99.90
15765;DHT22;7983;50.744;7.086;2023-08-21T09:40:23;27.10;99.90
15765;DHT22;7983;50.744;7.086;2023-08-21T09:42:58;27.20;99.90
15765;DHT22;7983;50.744;7.086;2023-08-21T09:45:28;27.30;99.90
15765;DHT22;7983;50.744;7.086;2023-08-21T09:47:54;27.30;99.90
15765;DHT22;7983;50.744;7.086;2023-08-21T09:50:21;27.40;99.90
15765;DHT22;7983;50.744;7.086;2023-08-21T09:52:51;27.50;99.90
15765;DHT22;7983;50.744;7.086;2023-08-21T09:55:20;27.50;99.90
15765;DHT22;7983;50.744;7.086;2023-08-21T09:57:48;27.60;99.90
15765;DHT22;7983;50.744;7.086;2023-08-21T10:00:14;27.70;99.90
15765;DHT22;7983;50.744;7.086;2023-08-21T10:02:51;27.70;99.90
15765;DHT22;7983;50.744;7.086;2023-08-21T10:05:19;27.80;99.90
15765;DHT22;7983;50.744;7.086;2023-08-21T10:07:49;27.90;99.90
15765;DHT22;7983;50.744;7.086;2023-08-21T10:10:20;28.00;99.90
15765;DHT22;7983;50.744;7.086;2023-08-21T10:12:48;28.10;99.90
15765;DHT22;7983;50.744;7.086;2023-08-21T10:15:14;28.30;99.90
15765;DHT22;7983;50.744;7.086;2023-08-21T10:17:41;28.60;99.90
15765;DHT22;7983;50.744;7.086;2023-08-21T10:20:08;29.00;99.90
15765;DHT22;7983;50.744;7.086;2023-08-21T10:22:51;29.40;99.90
15765;DHT22;7983;50.744;7.086;2023-08-21T10:25:22;29.90;99.90
15765;DHT22;7983;50.744;7.086;2023-08-21T10:27:53;30.30;99.90
15765;DHT22;7983;50.744;7.086;2023-08-21T10:30:22;30.80;99.90
15765;DHT22;7983;50.744;7.086;2023-08-21T10:32:53;31.10;99.90
15765;DHT22;7983;50.744;7.086;2023-08-21T10:35:22;31.40;99.90
15765;DHT22;7983;50.744;7.086;2023-08-21T10:38:13;31.60;99.90
15765;DHT22;7983;50.744;7.086;2023-08-21T10:43:45;32.30;99.90
15765;DHT22;7983;50.744;7.086;2023-08-21T10:46:13;32.50;99.90
15765;DHT22;7983;50.744;7.086;2023-08-21T10:48:41;32.70;99.90
15765;DHT22;7983;50.744;7.086;2023-08-21T10:51:08;32.80;99.90
15765;DHT22;7983;50.744;7.086;2023-08-21T10:53:34;33.00;99.90
15765;DHT22;7983;50.744;7.086;2023-08-21T10:56:05;33.10;99.90
15765;DHT22;7983;50.744;7.086;2023-08-21T10:58:44;33.20;99.90
15765;DHT22;7983;50.744;7.086;2023-08-21T11:01:16;33.20;99.90
15765;DHT22;7983;50.744;7.086;2023-08-21T11:03:47;33.30;99.90
15765;DHT22;7983;50.744;7.086;2023-08-21T11:06:18;33.30;99.90
15765;DHT22;7983;50.744;7.086;2023-08-21T11:08:51;33.40;99.90
15765;DHT22;7983;50.744;7.086;2023-08-21T11:11:18;33.40;99.90
15765;DHT22;7983;50.744;7.086;2023-08-21T11:13:52;33.30;99.90
15765;DHT22;7983;50.744;7.086;2023-08-21T11:16:24;33.30;99.90
15765;DHT22;7983;50.744;7.086;2023-08-21T11:18:50;33.30;99.90
15765;DHT22;7983;50.744;7.086;2023-08-21T11:21:15;33.40;99.90
15765;DHT22;7983;50.744;7.086;2023-08-21T11:23:41;33.40;99.90
15765;DHT22;7983;50.744;7.086;2023-08-21T11:26:11;33.40;99.90
15765;DHT22;7983;50.744;7.086;2023-08-21T11:28:38;33.50;99.90
15765;DHT22;7983;50.744;7.086;2023-08-21T11:31:06;33.50;99.90
15765;DHT22;7983;50.744;7.086;2023-08-21T11:33:32;33.50;99.90
15765;DHT22;7983;50.744;7.086;2023-08-21T11:35:59;33.60;99.90
15765;DHT22;7983;50.744;7.086;2023-08-21T11:38:26;33.60;99.90
15765;DHT22;7983;50.744;7.086;2023-08-21T11:40:59;33.70;99.90
15765;DHT22;7983;50.744;7.086;2023-08-21T11:43:41;33.60;99.90
15765;DHT22;7983;50.744;7.086;2023-08-21T11:46:09;33.60;99.90
15765;DHT22;7983;50.744;7.086;2023-08-21T11:48:37;33.70;99.90
15765;DHT22;7983;50.744;7.086;2023-08-21T11:51:03;33.80;99.90
15765;DHT22;7983;50.744;7.086;2023-08-21T11:53:35;33.80;99.90
15765;DHT22;7983;50.744;7.086;2023-08-21T11:56:01;33.80;99.90
15765;DHT22;7983;50.744;7.086;2023-08-21T11:58:27;33.80;99.90
15765;DHT22;7983;50.744;7.086;2023-08-21T12:01:03;33.80;99.90
15765;DHT22;7983;50.744;7.086;2023-08-21T12:03:29;33.80;99.90
15765;DHT22;7983;50.744;7.086;2023-08-21T12:05:57;33.80;99.90
15765;DHT22;7983;50.744;7.086;2023-08-21T12:08:25;33.70;99.90
15765;DHT22;7983;50.744;7.086;2023-08-21T12:10:53;33.70;99.90
15765;DHT22;7983;50.744;7.086;2023-08-21T12:13:25;33.60;99.90
15765;DHT22;7983;50.744;7.086;2023-08-21T12:15:51;33.50;99.90
15765;DHT22;7983;50.744;7.086;2023-08-21T12:18:19;33.50;99.90
15765;DHT22;7983;50.744;7.086;2023-08-21T12:20:44;33.40;99.90
15765;DHT22;7983;50.744;7.086;2023-08-21T12:23:13;33.50;99.90
15765;DHT22;7983;50.744;7.086;2023-08-21T12:25:38;33.50;99.90
15765;DHT22;7983;50.744;7.086;2023-08-21T12:28:05;33.50;99.90
15765;DHT22;7983;50.744;7.086;2023-08-21T12:30:31;33.40;99.90
15765;DHT22;7983;50.744;7.086;2023-08-21T12:32:56;33.40;99.90
15765;DHT22;7983;50.744;7.086;2023-08-21T12:35:22;33.30;99.90
15765;DHT22;7983;50.744;7.086;2023-08-21T12:37:48;33.30;99.90
15765;DHT22;7983;50.744;7.086;2023-08-21T12:40:14;33.30;99.90
15765;DHT22;7983;50.744;7.086;2023-08-21T12:42:44;33.30;99.90
15765;DHT22;7983;50.744;7.086;2023-08-21T12:45:09;33.20;99.90
15765;DHT22;7983;50.744;7.086;2023-08-21T12:47:36;33.30;99.90
15765;DHT22;7983;50.744;7.086;2023-08-21T12:50:02;33.30;99.90
15765;DHT22;7983;50.744;7.086;2023-08-21T12:52:28;33.30;99.90
15765;DHT22;7983;50.744;7.086;2023-08-21T12:54:54;33.50;99.90
15765;DHT22;7983;50.744;7.086;2023-08-21T12:57:19;33.50;99.90
15765;DHT22;7983;50.744;7.086;2023-08-21T12:59:45;33.60;99.90
15765;DHT22;7983;50.744;7.086;2023-08-21T13:02:11;33.60;99.90
15765;DHT22;7983;50.744;7.086;2023-08-21T13:04:38;33.60;99.90
15765;DHT22;7983;50.744;7.086;2023-08-21T13:07:04;33.50;99.90
15765;DHT22;7983;50.744;7.086;2023-08-21T13:09:30;33.30;99.90
15765;DHT22;7983;50.744;7.086;2023-08-21T13:11:56;33.20;99.90
15765;DHT22;7983;50.744;7.086;2023-08-21T13:14:21;33.10;99.90
15765;DHT22;7983;50.744;7.086;2023-08-21T13:16:47;33.10;99.90
15765;DHT22;7983;50.744;7.086;2023-08-21T13:19:15;33.10;99.90
15765;DHT22;7983;50.744;7.086;2023-08-21T13:21:41;33.00;99.90
15765;DHT22;7983;50.744;7.086;2023-08-21T13:24:09;33.00;99.90
15765;DHT22;7983;50.744;7.086;2023-08-21T13:26:37;33.10;99.90
15765;DHT22;7983;50.744;7.086;2023-08-21T13:29:05;33.20;99.90
15765;DHT22;7983;50.744;7.086;2023-08-21T13:31:33;33.40;99.90
15765;DHT22;7983;50.744;7.086;2023-08-21T13:34:01;33.40;99.90
15765;DHT22;7983;50.744;7.086;2023-08-21T13:36:27;33.40;99.90
15765;DHT22;7983;50.744;7.086;2023-08-21T13:38:55;33.30;99.90
15765;DHT22;7983;50.744;7.086;2023-08-21T13:41:20;33.30;99.90
15765;DHT22;7983;50.744;7.086;2023-08-21T13:43:48;33.30;99.90
15765;DHT22;7983;50.744;7.086;2023-08-21T13:46:14;33.30;99.90
15765;DHT22;7983;50.744;7.086;2023-08-21T13:48:40;33.30;99.90
15765;DHT22;7983;50.744;7.086;2023-08-21T13:51:08;33.20;99.90
15765;DHT22;7983;50.744;7.086;2023-08-21T13:53:38;33.10;99.90
15765;DHT22;7983;50.744;7.086;2023-08-21T13:56:07;33.10;99.90
15765;DHT22;7983;50.744;7.086;2023-08-21T13:58:35;33.10;99.90
15765;DHT22;7983;50.744;7.086;2023-08-21T14:01:02;33.20;99.90
15765;DHT22;7983;50.744;7.086;2023-08-21T14:03:30;33.30;99.90
15765;DHT22;7983;50.744;7.086;2023-08-21T14:05:56;33.30;99.90
15765;DHT22;7983;50.744;7.086;2023-08-21T14:08:21;33.20;99.90
15765;DHT22;7983;50.744;7.086;2023-08-21T14:10:49;33.00;99.50
15765;DHT22;7983;50.744;7.086;2023-08-21T14:13:17;32.80;99.70
15765;DHT22;7983;50.744;7.086;2023-08-21T14:15:43;32.70;99.90
15765;DHT22;7983;50.744;7.086;2023-08-21T14:18:10;32.70;99.90
15765;DHT22;7983;50.744;7.086;2023-08-21T14:20:36;32.80;99.90
15765;DHT22;7983;50.744;7.086;2023-08-21T14:23:09;32.90;99.80
15765;DHT22;7983;50.744;7.086;2023-08-21T14:25:39;32.90;98.80
15765;DHT22;7983;50.744;7.086;2023-08-21T14:28:05;32.70;98.80
15765;DHT22;7983;50.744;7.086;2023-08-21T14:30:31;32.70;99.30
15765;DHT22;7983;50.744;7.086;2023-08-21T14:32:57;32.70;99.30
15765;DHT22;7983;50.744;7.086;2023-08-21T14:35:25;32.70;99.30
15765;DHT22;7983;50.744;7.086;2023-08-21T14:37:53;32.80;99.60
15765;DHT22;7983;50.744;7.086;2023-08-21T14:40:18;33.00;99.70
15765;DHT22;7983;50.744;7.086;2023-08-21T14:42:44;33.10;98.50
15765;DHT22;7983;50.744;7.086;2023-08-21T14:45:10;33.20;98.70
15765;DHT22;7983;50.744;7.086;2023-08-21T14:47:35;33.40;98.90
15765;DHT22;7983;50.744;7.086;2023-08-21T14:50:05;33.50;98.80
15765;DHT22;7983;50.744;7.086;2023-08-21T14:52:31;33.70;97.70
15765;DHT22;7983;50.744;7.086;2023-08-21T14:54:56;33.70;97.80
15765;DHT22;7983;50.744;7.086;2023-08-21T14:57:25;33.70;97.40
15765;DHT22;7983;50.744;7.086;2023-08-21T14:59:51;33.60;97.00
15765;DHT22;7983;50.744;7.086;2023-08-21T15:02:16;33.40;96.70
15765;DHT22;7983;50.744;7.086;2023-08-21T15:04:45;33.20;96.60
15765;DHT22;7983;50.744;7.086;2023-08-21T15:07:15;33.00;96.10
15765;DHT22;7983;50.744;7.086;2023-08-21T15:09:43;32.80;95.80
15765;DHT22;7983;50.744;7.086;2023-08-21T15:12:10;32.70;96.00
15765;DHT22;7983;50.744;7.086;2023-08-21T15:14:37;32.50;96.20
15765;DHT22;7983;50.744;7.086;2023-08-21T15:17:03;32.40;96.30
15765;DHT22;7983;50.744;7.086;2023-08-21T15:19:33;32.20;96.10
15765;DHT22;7983;50.744;7.086;2023-08-21T15:21:58;32.10;96.10
15765;DHT22;7983;50.744;7.086;2023-08-21T15:24:28;31.90;96.10
15765;DHT22;7983;50.744;7.086;2023-08-21T15:26:55;31.80;96.10
15765;DHT22;7983;50.744;7.086;2023-08-21T15:29:21;31.70;96.20
15765;DHT22;7983;50.744;7.086;2023-08-21T15:31:48;31.50;96.20
15765;DHT22;7983;50.744;7.086;2023-08-21T15:34:21;31.40;96.30
15765;DHT22;7983;50.744;7.086;2023-08-21T15:36:49;31.30;96.30
15765;DHT22;7983;50.744;7.086;2023-08-21T15:39:17;31.30;96.70
15765;DHT22;7983;50.744;7.086;2023-08-21T15:41:45;31.40;96.90
15765;DHT22;7983;50.744;7.086;2023-08-21T15:44:13;31.40;97.00
15765;DHT22;7983;50.744;7.086;2023-08-21T15:46:38;31.50;96.90
15765;DHT22;7983;50.744;7.086;2023-08-21T15:49:04;31.50;97.00